sensor_id;sensor_type;location;lat;lon;timestamp;P1;durP1;ratioP1;P2;durP2;ratioP2
59569;SDS011;45393;44.646;10.900;2022-09-24T00:00:31;10.40;;;7.87;;
59569;SDS011;45393;44.646;10.900;2022-09-24T00:02:57;11.27;;;7.70;;
59569;SDS011;45393;44.646;10.900;2022-09-24T00:05:24;10.47;;;7.17;;
59569;SDS011;45393;44.646;10.900;2022-09-24T00:07:50;9.20;;;7.80;;
59569;SDS011;45393;44.646;10.900;2022-09-24T00:10:16;9.20;;;6.87;;
59569;SDS011;45393;44.646;10.900;2022-09-24T00:12:42;8.67;;;7.07;;
59569;SDS011;45393;44.646;10.900;2022-09-24T00:15:08;10.83;;;7.00;;
59569;SDS011;45393;44.646;10.900;2022-09-24T00:17:34;8.70;;;6.47;;
59569;SDS011;45393;44.646;10.900;2022-09-24T00:20:00;7.60;;;6.30;;
59569;SDS011;45393;44.646;10.900;2022-09-24T00:22:27;9.67;;;6.57;;
59569;SDS011;45393;44.646;10.900;2022-09-24T00:24:53;9.70;;;6.33;;
59569;SDS011;45393;44.646;10.900;2022-09-24T00:27:37;10.23;;;6.67;;
59569;SDS011;45393;44.646;10.900;2022-09-24T00:30:03;8.20;;;6.17;;
59569;SDS011;45393;44.646;10.900;2022-09-24T00:32:29;9.03;;;6.53;;
59569;SDS011;45393;44.646;10.900;2022-09-24T00:34:56;9.37;;;6.37;;
59569;SDS011;45393;44.646;10.900;2022-09-24T00:37:22;5.93;;;5.30;;
59569;SDS011;45393;44.646;10.900;2022-09-24T00:39:48;8.73;;;5.57;;
59569;SDS011;45393;44.646;10.900;2022-09-24T00:42:14;9.37;;;5.93;;
59569;SDS011;45393;44.646;10.900;2022-09-24T00:47:25;8.47;;;4.80;;
59569;SDS011;45393;44.646;10.900;2022-09-24T00:50:02;6.47;;;4.80;;
59569;SDS011;45393;44.646;10.900;2022-09-24T00:52:30;7.33;;;4.57;;
59569;SDS011;45393;44.646;10.900;2022-09-24T00:54:56;7.70;;;4.63;;
59569;SDS011;45393;44.646;10.900;2022-09-24T00:57:22;6.93;;;4.47;;
59569;SDS011;45393;44.646;10.900;2022-09-24T00:59:49;6.53;;;4.27;;
59569;SDS011;45393;44.646;10.900;2022-09-24T01:02:15;6.90;;;4.17;;
59569;SDS011;45393;44.646;10.900;2022-09-24T01:04:41;7.73;;;4.40;;
59569;SDS011;45393;44.646;10.900;2022-09-24T01:07:08;8.70;;;4.13;;
59569;SDS011;45393;44.646;10.900;2022-09-24T01:09:34;4.07;;;3.47;;
59569;SDS011;45393;44.646;10.900;2022-09-24T01:16:58;5.97;;;3.53;;
59569;SDS011;45393;44.646;10.900;2022-09-24T01:25:06;5.20;;;3.10;;
59569;SDS011;45393;44.646;10.900;2022-09-24T01:30:05;3.87;;;3.03;;
59569;SDS011;45393;44.646;10.900;2022-09-24T01:32:52;4.07;;;3.20;;
59569;SDS011;45393;44.646;10.900;2022-09-24T01:35:22;3.07;;;2.73;;
59569;SDS011;45393;44.646;10.900;2022-09-24T01:37:52;4.00;;;3.00;;
59569;SDS011;45393;44.646;10.900;2022-09-24T01:40:19;4.50;;;3.00;;
59569;SDS011;45393;44.646;10.900;2022-09-24T01:42:46;5.27;;;3.23;;
59569;SDS011;45393;44.646;10.900;2022-09-24T01:45:15;4.03;;;3.00;;
59569;SDS011;45393;44.646;10.900;2022-09-24T01:47:42;4.40;;;2.93;;
59569;SDS011;45393;44.646;10.900;2022-09-24T01:50:11;6.33;;;3.00;;
59569;SDS011;45393;44.646;10.900;2022-09-24T01:52:40;3.90;;;2.90;;
59569;SDS011;45393;44.646;10.900;2022-09-24T01:55:06;7.33;;;3.43;;
59569;SDS011;45393;44.646;10.900;2022-09-24T01:57:37;4.77;;;3.30;;
59569;SDS011;45393;44.646;10.900;2022-09-24T02:02:36;5.20;;;3.47;;
59569;SDS011;45393;44.646;10.900;2022-09-24T02:07:37;5.97;;;3.67;;
59569;SDS011;45393;44.646;10.900;2022-09-24T02:10:12;8.33;;;4.03;;
59569;SDS011;45393;44.646;10.900;2022-09-24T02:12:38;4.57;;;3.47;;
59569;SDS011;45393;44.646;10.900;2022-09-24T02:15:08;3.47;;;3.17;;
59569;SDS011;45393;44.646;10.900;2022-09-24T02:17:37;4.40;;;3.37;;
59569;SDS011;45393;44.646;10.900;2022-09-24T02:20:07;4.57;;;3.17;;
59569;SDS011;45393;44.646;10.900;2022-09-24T02:22:34;4.00;;;3.43;;
59569;SDS011;45393;44.646;10.900;2022-09-24T02:25:01;5.97;;;3.00;;
59569;SDS011;45393;44.646;10.900;2022-09-24T02:27:29;5.23;;;3.47;;
59569;SDS011;45393;44.646;10.900;2022-09-24T02:29:56;4.27;;;3.10;;
59569;SDS011;45393;44.646;10.900;2022-09-24T02:32:22;7.63;;;3.07;;
59569;SDS011;45393;44.646;10.900;2022-09-24T02:34:51;3.93;;;3.20;;
59569;SDS011;45393;44.646;10.900;2022-09-24T02:37:20;3.87;;;3.30;;
59569;SDS011;45393;44.646;10.900;2022-09-24T02:39:47;3.97;;;3.23;;
59569;SDS011;45393;44.646;10.900;2022-09-24T02:42:14;7.23;;;3.57;;
59569;SDS011;45393;44.646;10.900;2022-09-24T02:44:41;5.77;;;2.90;;
59569;SDS011;45393;44.646;10.900;2022-09-24T02:47:07;4.17;;;3.10;;
59569;SDS011;45393;44.646;10.900;2022-09-24T02:49:33;6.07;;;3.40;;
59569;SDS011;45393;44.646;10.900;2022-09-24T02:51:59;5.90;;;3.33;;
59569;SDS011;45393;44.646;10.900;2022-09-24T02:54:25;7.43;;;5.10;;
59569;SDS011;45393;44.646;10.900;2022-09-24T02:56:51;6.17;;;4.20;;
59569;SDS011;45393;44.646;10.900;2022-09-24T02:59:18;6.90;;;4.93;;
59569;SDS011;45393;44.646;10.900;2022-09-24T03:01:44;8.53;;;5.63;;
59569;SDS011;45393;44.646;10.900;2022-09-24T03:04:11;7.30;;;6.30;;
59569;SDS011;45393;44.646;10.900;2022-09-24T03:06:37;9.30;;;7.17;;
59569;SDS011;45393;44.646;10.900;2022-09-24T03:09:03;11.53;;;8.50;;
59569;SDS011;45393;44.646;10.900;2022-09-24T03:11:30;13.63;;;9.27;;
59569;SDS011;45393;44.646;10.900;2022-09-24T03:13:57;10.93;;;8.27;;
59569;SDS011;45393;44.646;10.900;2022-09-24T03:16:23;9.70;;;8.00;;
59569;SDS011;45393;44.646;10.900;2022-09-24T03:18:49;9.83;;;8.83;;
59569;SDS011;45393;44.646;10.900;2022-09-24T03:21:19;14.07;;;10.07;;
59569;SDS011;45393;44.646;10.900;2022-09-24T03:23:46;14.90;;;10.73;;
59569;SDS011;45393;44.646;10.900;2022-09-24T03:26:12;11.73;;;8.57;;
59569;SDS011;45393;44.646;10.900;2022-09-24T03:28:38;10.33;;;8.50;;
59569;SDS011;45393;44.646;10.900;2022-09-24T03:31:05;13.90;;;9.37;;
59569;SDS011;45393;44.646;10.900;2022-09-24T03:33:37;11.03;;;9.23;;
59569;SDS011;45393;44.646;10.900;2022-09-24T03:36:05;12.73;;;8.90;;
59569;SDS011;45393;44.646;10.900;2022-09-24T03:38:31;12.60;;;9.60;;
59569;SDS011;45393;44.646;10.900;2022-09-24T03:40:58;15.83;;;10.47;;
59569;SDS011;45393;44.646;10.900;2022-09-24T03:43:24;12.30;;;9.23;;
59569;SDS011;45393;44.646;10.900;2022-09-24T03:45:51;12.57;;;10.13;;
59569;SDS011;45393;44.646;10.900;2022-09-24T03:48:17;11.63;;;8.93;;
59569;SDS011;45393;44.646;10.900;2022-09-24T03:50:44;11.20;;;9.63;;
59569;SDS011;45393;44.646;10.900;2022-09-24T03:53:10;12.57;;;9.20;;
59569;SDS011;45393;44.646;10.900;2022-09-24T03:55:40;13.03;;;9.73;;
59569;SDS011;45393;44.646;10.900;2022-09-24T03:58:06;11.63;;;9.17;;
59569;SDS011;45393;44.646;10.900;2022-09-24T04:00:33;11.70;;;9.23;;
59569;SDS011;45393;44.646;10.900;2022-09-24T04:02:59;10.53;;;8.57;;
59569;SDS011;45393;44.646;10.900;2022-09-24T04:05:25;11.17;;;8.67;;
59569;SDS011;45393;44.646;10.900;2022-09-24T04:07:51;9.33;;;8.27;;
59569;SDS011;45393;44.646;10.900;2022-09-24T04:10:17;9.30;;;8.30;;
59569;SDS011;45393;44.646;10.900;2022-09-24T04:12:43;10.50;;;8.00;;
59569;SDS011;45393;44.646;10.900;2022-09-24T04:15:10;11.83;;;8.27;;
59569;SDS011;45393;44.646;10.900;2022-09-24T04:17:37;10.13;;;8.70;;
59569;SDS011;45393;44.646;10.900;2022-09-24T04:20:03;9.93;;;7.93;;
59569;SDS011;45393;44.646;10.900;2022-09-24T04:22:29;10.83;;;8.10;;
59569;SDS011;45393;44.646;10.900;2022-09-24T04:24:55;8.70;;;6.90;;
59569;SDS011;45393;44.646;10.900;2022-09-24T04:27:22;8.03;;;6.90;;
59569;SDS011;45393;44.646;10.900;2022-09-24T04:29:48;10.27;;;7.90;;
59569;SDS011;45393;44.646;10.900;2022-09-24T04:32:14;9.37;;;8.03;;
59569;SDS011;45393;44.646;10.900;2022-09-24T04:34:40;10.93;;;8.10;;
59569;SDS011;45393;44.646;10.900;2022-09-24T04:37:06;15.23;;;9.00;;
59569;SDS011;45393;44.646;10.900;2022-09-24T04:39:33;9.73;;;8.00;;
59569;SDS011;45393;44.646;10.900;2022-09-24T04:41:59;14.40;;;8.73;;
59569;SDS011;45393;44.646;10.900;2022-09-24T04:44:26;12.57;;;7.93;;
59569;SDS011;45393;44.646;10.900;2022-09-24T04:46:53;14.00;;;8.57;;
59569;SDS011;45393;44.646;10.900;2022-09-24T04:49:26;11.23;;;7.70;;
59569;SDS011;45393;44.646;10.900;2022-09-24T04:51:53;13.10;;;8.70;;
59569;SDS011;45393;44.646;10.900;2022-09-24T04:54:22;13.60;;;8.50;;
59569;SDS011;45393;44.646;10.900;2022-09-24T04:56:48;11.43;;;8.17;;
59569;SDS011;45393;44.646;10.900;2022-09-24T04:59:14;11.83;;;7.80;;
59569;SDS011;45393;44.646;10.900;2022-09-24T05:01:40;11.73;;;7.80;;
59569;SDS011;45393;44.646;10.900;2022-09-24T05:04:06;11.57;;;8.37;;
59569;SDS011;45393;44.646;10.900;2022-09-24T05:06:32;12.70;;;8.60;;
59569;SDS011;45393;44.646;10.900;2022-09-24T05:09:00;10.47;;;8.03;;
59569;SDS011;45393;44.646;10.900;2022-09-24T05:11:26;11.77;;;8.87;;
59569;SDS011;45393;44.646;10.900;2022-09-24T05:13:53;14.20;;;10.17;;
59569;SDS011;45393;44.646;10.900;2022-09-24T05:16:19;14.23;;;10.17;;
59569;SDS011;45393;44.646;10.900;2022-09-24T05:18:45;13.67;;;10.20;;
59569;SDS011;45393;44.646;10.900;2022-09-24T05:21:11;12.43;;;9.67;;
59569;SDS011;45393;44.646;10.900;2022-09-24T05:23:37;13.87;;;10.47;;
59569;SDS011;45393;44.646;10.900;2022-09-24T05:26:03;14.93;;;10.10;;
59569;SDS011;45393;44.646;10.900;2022-09-24T05:28:48;16.60;;;11.23;;
59569;SDS011;45393;44.646;10.900;2022-09-24T05:31:14;18.53;;;11.10;;
59569;SDS011;45393;44.646;10.900;2022-09-24T05:33:41;15.10;;;10.83;;
59569;SDS011;45393;44.646;10.900;2022-09-24T05:36:07;17.60;;;11.53;;
59569;SDS011;45393;44.646;10.900;2022-09-24T05:38:33;16.80;;;11.03;;
59569;SDS011;45393;44.646;10.900;2022-09-24T05:40:59;15.10;;;10.87;;
59569;SDS011;45393;44.646;10.900;2022-09-24T05:43:25;14.47;;;10.63;;
59569;SDS011;45393;44.646;10.900;2022-09-24T05:45:52;15.73;;;9.80;;
59569;SDS011;45393;44.646;10.900;2022-09-24T05:48:18;17.73;;;10.27;;
59569;SDS011;45393;44.646;10.900;2022-09-24T05:50:45;13.70;;;10.57;;
59569;SDS011;45393;44.646;10.900;2022-09-24T05:53:11;16.57;;;10.47;;
59569;SDS011;45393;44.646;10.900;2022-09-24T05:55:38;16.33;;;10.67;;
59569;SDS011;45393;44.646;10.900;2022-09-24T05:58:08;18.90;;;10.47;;
59569;SDS011;45393;44.646;10.900;2022-09-24T06:00:35;16.50;;;10.30;;
59569;SDS011;45393;44.646;10.900;2022-09-24T06:03:05;13.63;;;10.43;;
59569;SDS011;45393;44.646;10.900;2022-09-24T06:05:32;13.47;;;10.17;;
59569;SDS011;45393;44.646;10.900;2022-09-24T06:08:00;15.23;;;10.10;;
59569;SDS011;45393;44.646;10.900;2022-09-24T06:10:26;12.27;;;9.90;;
59569;SDS011;45393;44.646;10.900;2022-09-24T06:12:52;14.40;;;11.23;;
59569;SDS011;45393;44.646;10.900;2022-09-24T06:15:19;15.27;;;10.47;;
59569;SDS011;45393;44.646;10.900;2022-09-24T06:17:45;13.07;;;9.40;;
59569;SDS011;45393;44.646;10.900;2022-09-24T06:20:11;11.37;;;8.90;;
59569;SDS011;45393;44.646;10.900;2022-09-24T06:22:38;10.67;;;9.13;;
59569;SDS011;45393;44.646;10.900;2022-09-24T06:25:04;10.63;;;9.13;;
59569;SDS011;45393;44.646;10.900;2022-09-24T06:27:31;12.07;;;8.93;;
59569;SDS011;45393;44.646;10.900;2022-09-24T06:29:57;11.30;;;9.07;;
59569;SDS011;45393;44.646;10.900;2022-09-24T06:32:23;13.73;;;9.63;;
59569;SDS011;45393;44.646;10.900;2022-09-24T06:34:49;20.10;;;10.30;;
59569;SDS011;45393;44.646;10.900;2022-09-24T06:37:15;13.97;;;8.93;;
59569;SDS011;45393;44.646;10.900;2022-09-24T06:39:42;18.80;;;9.40;;
59569;SDS011;45393;44.646;10.900;2022-09-24T06:42:08;18.00;;;8.67;;
59569;SDS011;45393;44.646;10.900;2022-09-24T06:44:34;13.60;;;8.77;;
59569;SDS011;45393;44.646;10.900;2022-09-24T06:47:00;19.60;;;9.40;;
59569;SDS011;45393;44.646;10.900;2022-09-24T06:49:26;12.43;;;8.70;;
59569;SDS011;45393;44.646;10.900;2022-09-24T06:51:53;13.53;;;8.43;;
59569;SDS011;45393;44.646;10.900;2022-09-24T06:54:20;12.37;;;8.57;;
59569;SDS011;45393;44.646;10.900;2022-09-24T06:56:46;13.00;;;8.43;;
59569;SDS011;45393;44.646;10.900;2022-09-24T06:59:12;13.33;;;8.13;;
59569;SDS011;45393;44.646;10.900;2022-09-24T07:01:39;12.83;;;8.17;;
59569;SDS011;45393;44.646;10.900;2022-09-24T07:04:05;10.90;;;8.20;;
59569;SDS011;45393;44.646;10.900;2022-09-24T07:06:32;12.97;;;10.07;;
59569;SDS011;45393;44.646;10.900;2022-09-24T07:09:17;14.17;;;11.77;;
59569;SDS011;45393;44.646;10.900;2022-09-24T07:11:43;10.93;;;9.13;;
59569;SDS011;45393;44.646;10.900;2022-09-24T07:14:10;10.97;;;7.27;;
59569;SDS011;45393;44.646;10.900;2022-09-24T07:16:37;10.27;;;7.27;;
59569;SDS011;45393;44.646;10.900;2022-09-24T07:19:03;10.00;;;7.20;;
59569;SDS011;45393;44.646;10.900;2022-09-24T07:21:29;9.23;;;5.37;;
59569;SDS011;45393;44.646;10.900;2022-09-24T07:23:55;6.10;;;4.77;;
59569;SDS011;45393;44.646;10.900;2022-09-24T07:26:21;7.27;;;4.60;;
59569;SDS011;45393;44.646;10.900;2022-09-24T07:28:47;6.50;;;4.10;;
59569;SDS011;45393;44.646;10.900;2022-09-24T07:31:13;8.30;;;3.93;;
59569;SDS011;45393;44.646;10.900;2022-09-24T07:33:41;6.67;;;3.83;;
59569;SDS011;45393;44.646;10.900;2022-09-24T07:36:07;5.00;;;3.60;;
59569;SDS011;45393;44.646;10.900;2022-09-24T07:38:33;5.57;;;3.90;;
59569;SDS011;45393;44.646;10.900;2022-09-24T07:41:02;7.20;;;4.33;;
59569;SDS011;45393;44.646;10.900;2022-09-24T07:43:30;9.80;;;6.23;;
59569;SDS011;45393;44.646;10.900;2022-09-24T07:45:57;10.70;;;6.73;;
59569;SDS011;45393;44.646;10.900;2022-09-24T07:48:23;8.27;;;6.73;;
59569;SDS011;45393;44.646;10.900;2022-09-24T07:50:49;11.73;;;6.40;;
59569;SDS011;45393;44.646;10.900;2022-09-24T07:53:15;8.87;;;5.80;;
59569;SDS011;45393;44.646;10.900;2022-09-24T07:55:42;9.13;;;5.63;;
59569;SDS011;45393;44.646;10.900;2022-09-24T07:58:10;8.73;;;4.83;;
59569;SDS011;45393;44.646;10.900;2022-09-24T08:00:37;9.17;;;5.47;;
59569;SDS011;45393;44.646;10.900;2022-09-24T08:03:04;10.23;;;5.87;;
59569;SDS011;45393;44.646;10.900;2022-09-24T08:05:31;11.40;;;5.80;;
59569;SDS011;45393;44.646;10.900;2022-09-24T08:07:57;12.40;;;6.47;;
59569;SDS011;45393;44.646;10.900;2022-09-24T08:10:25;10.83;;;6.07;;
59569;SDS011;45393;44.646;10.900;2022-09-24T08:12:52;8.03;;;5.33;;
59569;SDS011;45393;44.646;10.900;2022-09-24T08:15:20;7.27;;;4.43;;
59569;SDS011;45393;44.646;10.900;2022-09-24T08:17:46;6.13;;;4.50;;
59569;SDS011;45393;44.646;10.900;2022-09-24T08:20:12;6.47;;;3.90;;
59569;SDS011;45393;44.646;10.900;2022-09-24T08:22:39;7.97;;;3.60;;
59569;SDS011;45393;44.646;10.900;2022-09-24T08:25:05;4.90;;;3.60;;
59569;SDS011;45393;44.646;10.900;2022-09-24T08:27:31;5.53;;;3.50;;
59569;SDS011;45393;44.646;10.900;2022-09-24T08:30:00;5.70;;;3.93;;
59569;SDS011;45393;44.646;10.900;2022-09-24T08:32:26;5.20;;;3.50;;
59569;SDS011;45393;44.646;10.900;2022-09-24T08:34:55;6.70;;;3.87;;
59569;SDS011;45393;44.646;10.900;2022-09-24T08:37:22;5.10;;;3.30;;
59569;SDS011;45393;44.646;10.900;2022-09-24T08:39:48;4.73;;;3.07;;
59569;SDS011;45393;44.646;10.900;2022-09-24T08:44:59;6.47;;;3.63;;
59569;SDS011;45393;44.646;10.900;2022-09-24T08:47:49;7.17;;;3.80;;
59569;SDS011;45393;44.646;10.900;2022-09-24T08:50:26;7.73;;;3.57;;
59569;SDS011;45393;44.646;10.900;2022-09-24T08:55:30;7.90;;;4.00;;
59569;SDS011;45393;44.646;10.900;2022-09-24T08:58:03;7.80;;;4.10;;
59569;SDS011;45393;44.646;10.900;2022-09-24T09:00:35;8.50;;;4.07;;
59569;SDS011;45393;44.646;10.900;2022-09-24T09:03:12;7.33;;;3.97;;
59569;SDS011;45393;44.646;10.900;2022-09-24T09:05:52;7.33;;;3.50;;
59569;SDS011;45393;44.646;10.900;2022-09-24T09:08:31;14.67;;;4.20;;
59569;SDS011;45393;44.646;10.900;2022-09-24T09:10:59;6.00;;;3.00;;
59569;SDS011;45393;44.646;10.900;2022-09-24T09:13:29;19.57;;;4.23;;
59569;SDS011;45393;44.646;10.900;2022-09-24T09:16:03;14.90;;;3.70;;
59569;SDS011;45393;44.646;10.900;2022-09-24T09:18:32;7.23;;;3.50;;
59569;SDS011;45393;44.646;10.900;2022-09-24T09:21:36;5.03;;;3.10;;
59569;SDS011;45393;44.646;10.900;2022-09-24T09:23:53;5.30;;;3.07;;
59569;SDS011;45393;44.646;10.900;2022-09-24T09:26:21;5.03;;;2.90;;
59569;SDS011;45393;44.646;10.900;2022-09-24T09:28:47;4.10;;;3.60;;
59569;SDS011;45393;44.646;10.900;2022-09-24T09:41:37;5.53;;;3.50;;
59569;SDS011;45393;44.646;10.900;2022-09-24T09:44:24;5.33;;;2.77;;
59569;SDS011;45393;44.646;10.900;2022-09-24T09:46:56;4.43;;;2.83;;
59569;SDS011;45393;44.646;10.900;2022-09-24T09:49:25;5.77;;;3.20;;
59569;SDS011;45393;44.646;10.900;2022-09-24T09:51:53;4.73;;;2.80;;
59569;SDS011;45393;44.646;10.900;2022-09-24T09:54:21;4.97;;;2.60;;
59569;SDS011;45393;44.646;10.900;2022-09-24T09:56:47;4.17;;;2.47;;
59569;SDS011;45393;44.646;10.900;2022-09-24T09:59:18;5.27;;;2.93;;
59569;SDS011;45393;44.646;10.900;2022-09-24T10:01:47;4.17;;;2.73;;
59569;SDS011;45393;44.646;10.900;2022-09-24T10:04:21;4.07;;;2.50;;
59569;SDS011;45393;44.646;10.900;2022-09-24T10:06:48;3.00;;;2.70;;
59569;SDS011;45393;44.646;10.900;2022-09-24T10:09:15;4.60;;;2.33;;
59569;SDS011;45393;44.646;10.900;2022-09-24T10:11:43;5.70;;;2.60;;
59569;SDS011;45393;44.646;10.900;2022-09-24T10:14:13;3.73;;;2.37;;
59569;SDS011;45393;44.646;10.900;2022-09-24T10:16:41;3.97;;;2.20;;
59569;SDS011;45393;44.646;10.900;2022-09-24T10:19:24;5.23;;;2.13;;
59569;SDS011;45393;44.646;10.900;2022-09-24T10:21:51;3.07;;;2.10;;
59569;SDS011;45393;44.646;10.900;2022-09-24T10:24:20;4.50;;;2.53;;
59569;SDS011;45393;44.646;10.900;2022-09-24T10:26:47;6.07;;;2.73;;
59569;SDS011;45393;44.646;10.900;2022-09-24T10:29:15;4.10;;;2.23;;
59569;SDS011;45393;44.646;10.900;2022-09-24T10:32:02;3.67;;;2.33;;
59569;SDS011;45393;44.646;10.900;2022-09-24T10:34:28;8.23;;;2.43;;
59569;SDS011;45393;44.646;10.900;2022-09-24T10:39:24;6.20;;;2.80;;
59569;SDS011;45393;44.646;10.900;2022-09-24T10:41:51;5.70;;;2.70;;
59569;SDS011;45393;44.646;10.900;2022-09-24T10:44:18;8.33;;;2.57;;
59569;SDS011;45393;44.646;10.900;2022-09-24T11:00:20;3.80;;;2.20;;
59569;SDS011;45393;44.646;10.900;2022-09-24T11:05:29;4.07;;;2.20;;
59569;SDS011;45393;44.646;10.900;2022-09-24T11:13:14;4.43;;;2.50;;
59569;SDS011;45393;44.646;10.900;2022-09-24T11:23:50;3.13;;;2.13;;
59569;SDS011;45393;44.646;10.900;2022-09-24T11:31:40;3.47;;;2.37;;
59569;SDS011;45393;44.646;10.900;2022-09-24T11:44:34;3.90;;;2.30;;
59569;SDS011;45393;44.646;10.900;2022-09-24T11:52:20;5.83;;;3.00;;
59569;SDS011;45393;44.646;10.900;2022-09-24T11:57:25;6.90;;;2.93;;
59569;SDS011;45393;44.646;10.900;2022-09-24T12:02:21;7.77;;;3.10;;
59569;SDS011;45393;44.646;10.900;2022-09-24T12:04:52;7.17;;;3.00;;
59569;SDS011;45393;44.646;10.900;2022-09-24T12:08:01;7.70;;;3.27;;
59569;SDS011;45393;44.646;10.900;2022-09-24T12:10:18;7.00;;;3.30;;
59569;SDS011;45393;44.646;10.900;2022-09-24T12:12:46;9.30;;;3.63;;
59569;SDS011;45393;44.646;10.900;2022-09-24T12:15:17;5.80;;;3.63;;
59569;SDS011;45393;44.646;10.900;2022-09-24T12:20:19;7.93;;;4.00;;
59569;SDS011;45393;44.646;10.900;2022-09-24T12:22:47;6.10;;;3.23;;
59569;SDS011;45393;44.646;10.900;2022-09-24T12:25:15;8.80;;;4.20;;
59569;SDS011;45393;44.646;10.900;2022-09-24T12:27:41;6.83;;;3.80;;
59569;SDS011;45393;44.646;10.900;2022-09-24T12:35:56;7.97;;;4.40;;
59569;SDS011;45393;44.646;10.900;2022-09-24T12:41:14;4.63;;;3.80;;
59569;SDS011;45393;44.646;10.900;2022-09-24T12:46:43;9.20;;;4.90;;
59569;SDS011;45393;44.646;10.900;2022-09-24T12:49:16;9.23;;;5.27;;
59569;SDS011;45393;44.646;10.900;2022-09-24T12:51:43;9.73;;;5.53;;
59569;SDS011;45393;44.646;10.900;2022-09-24T12:57:14;8.90;;;6.53;;
59569;SDS011;45393;44.646;10.900;2022-09-24T13:02:17;8.40;;;6.03;;
59569;SDS011;45393;44.646;10.900;2022-09-24T13:04:48;8.00;;;6.20;;
59569;SDS011;45393;44.646;10.900;2022-09-24T13:07:28;8.47;;;5.87;;
59569;SDS011;45393;44.646;10.900;2022-09-24T13:09:54;9.73;;;6.50;;
59569;SDS011;45393;44.646;10.900;2022-09-24T13:12:21;10.57;;;6.63;;
59569;SDS011;45393;44.646;10.900;2022-09-24T13:17:20;11.97;;;7.97;;
59569;SDS011;45393;44.646;10.900;2022-09-24T13:19:47;10.60;;;8.53;;
59569;SDS011;45393;44.646;10.900;2022-09-24T13:22:22;11.17;;;7.20;;
59569;SDS011;45393;44.646;10.900;2022-09-24T13:25:36;8.20;;;6.87;;
59569;SDS011;45393;44.646;10.900;2022-09-24T13:27:40;8.60;;;7.23;;
59569;SDS011;45393;44.646;10.900;2022-09-24T13:30:25;11.47;;;7.60;;
59569;SDS011;45393;44.646;10.900;2022-09-24T13:32:56;11.50;;;8.40;;
59569;SDS011;45393;44.646;10.900;2022-09-24T13:35:25;9.90;;;7.93;;
59569;SDS011;45393;44.646;10.900;2022-09-24T13:37:55;12.73;;;9.50;;
59569;SDS011;45393;44.646;10.900;2022-09-24T13:40:30;14.70;;;8.93;;
59569;SDS011;45393;44.646;10.900;2022-09-24T13:43:06;14.97;;;10.60;;
59569;SDS011;45393;44.646;10.900;2022-09-24T13:45:36;13.73;;;10.47;;
59569;SDS011;45393;44.646;10.900;2022-09-24T13:48:13;16.03;;;11.17;;
59569;SDS011;45393;44.646;10.900;2022-09-24T13:50:47;13.77;;;10.77;;
59569;SDS011;45393;44.646;10.900;2022-09-24T13:55:43;18.17;;;11.73;;
59569;SDS011;45393;44.646;10.900;2022-09-24T13:58:43;16.20;;;12.07;;
59569;SDS011;45393;44.646;10.900;2022-09-24T14:01:03;15.70;;;11.50;;
59569;SDS011;45393;44.646;10.900;2022-09-24T14:03:31;15.97;;;12.97;;
59569;SDS011;45393;44.646;10.900;2022-09-24T14:06:01;17.27;;;13.43;;
59569;SDS011;45393;44.646;10.900;2022-09-24T14:08:33;16.97;;;13.80;;
59569;SDS011;45393;44.646;10.900;2022-09-24T14:11:04;16.73;;;11.97;;
59569;SDS011;45393;44.646;10.900;2022-09-24T14:13:33;16.70;;;11.40;;
59569;SDS011;45393;44.646;10.900;2022-09-24T14:16:12;11.90;;;10.50;;
59569;SDS011;45393;44.646;10.900;2022-09-24T14:18:39;14.33;;;10.00;;
59569;SDS011;45393;44.646;10.900;2022-09-24T14:21:13;12.30;;;10.87;;
59569;SDS011;45393;44.646;10.900;2022-09-24T14:23:51;12.53;;;10.63;;
59569;SDS011;45393;44.646;10.900;2022-09-24T14:26:40;14.40;;;11.00;;
59569;SDS011;45393;44.646;10.900;2022-09-24T14:29:06;13.83;;;12.17;;
59569;SDS011;45393;44.646;10.900;2022-09-24T14:31:41;14.37;;;11.30;;
59569;SDS011;45393;44.646;10.900;2022-09-24T14:34:12;13.13;;;10.93;;
59569;SDS011;45393;44.646;10.900;2022-09-24T14:36:44;12.97;;;11.30;;
59569;SDS011;45393;44.646;10.900;2022-09-24T14:39:10;12.73;;;11.07;;
59569;SDS011;45393;44.646;10.900;2022-09-24T14:41:37;14.37;;;11.23;;
59569;SDS011;45393;44.646;10.900;2022-09-24T14:44:08;13.10;;;11.43;;
59569;SDS011;45393;44.646;10.900;2022-09-24T14:46:42;12.27;;;10.17;;
59569;SDS011;45393;44.646;10.900;2022-09-24T14:49:16;13.10;;;10.30;;
59569;SDS011;45393;44.646;10.900;2022-09-24T14:51:50;11.43;;;9.67;;
59569;SDS011;45393;44.646;10.900;2022-09-24T14:54:38;10.87;;;9.50;;
59569;SDS011;45393;44.646;10.900;2022-09-24T14:57:11;12.77;;;9.73;;
59569;SDS011;45393;44.646;10.900;2022-09-24T14:59:48;13.53;;;10.60;;
59569;SDS011;45393;44.646;10.900;2022-09-24T15:02:21;11.57;;;9.83;;
59569;SDS011;45393;44.646;10.900;2022-09-24T15:04:50;12.77;;;9.63;;
59569;SDS011;45393;44.646;10.900;2022-09-24T15:07:18;11.20;;;9.80;;
59569;SDS011;45393;44.646;10.900;2022-09-24T15:09:50;13.67;;;10.43;;
59569;SDS011;45393;44.646;10.900;2022-09-24T15:12:37;14.37;;;10.03;;
59569;SDS011;45393;44.646;10.900;2022-09-24T15:15:04;10.73;;;9.70;;
59569;SDS011;45393;44.646;10.900;2022-09-24T15:17:33;10.20;;;8.33;;
59569;SDS011;45393;44.646;10.900;2022-09-24T15:19:59;12.07;;;9.60;;
59569;SDS011;45393;44.646;10.900;2022-09-24T15:22:26;10.83;;;8.93;;
59569;SDS011;45393;44.646;10.900;2022-09-24T15:24:53;15.47;;;9.20;;
59569;SDS011;45393;44.646;10.900;2022-09-24T15:29:49;12.97;;;9.37;;
59569;SDS011;45393;44.646;10.900;2022-09-24T15:32:16;12.73;;;9.40;;
59569;SDS011;45393;44.646;10.900;2022-09-24T15:34:43;12.20;;;10.30;;
59569;SDS011;45393;44.646;10.900;2022-09-24T15:37:10;12.53;;;9.77;;
59569;SDS011;45393;44.646;10.900;2022-09-24T15:39:37;15.07;;;10.37;;
59569;SDS011;45393;44.646;10.900;2022-09-24T15:42:03;12.03;;;9.40;;
59569;SDS011;45393;44.646;10.900;2022-09-24T15:44:30;12.10;;;10.67;;
59569;SDS011;45393;44.646;10.900;2022-09-24T15:46:56;14.90;;;10.90;;
59569;SDS011;45393;44.646;10.900;2022-09-24T15:49:22;13.70;;;10.30;;
59569;SDS011;45393;44.646;10.900;2022-09-24T15:51:49;13.70;;;11.07;;
59569;SDS011;45393;44.646;10.900;2022-09-24T15:54:16;16.20;;;13.40;;
59569;SDS011;45393;44.646;10.900;2022-09-24T15:56:43;18.07;;;14.13;;
59569;SDS011;45393;44.646;10.900;2022-09-24T15:59:13;20.47;;;15.80;;
59569;SDS011;45393;44.646;10.900;2022-09-24T16:01:40;20.10;;;15.67;;
59569;SDS011;45393;44.646;10.900;2022-09-24T16:04:07;21.67;;;17.50;;
59569;SDS011;45393;44.646;10.900;2022-09-24T16:06:34;23.77;;;16.93;;
59569;SDS011;45393;44.646;10.900;2022-09-24T16:09:00;22.47;;;16.90;;
59569;SDS011;45393;44.646;10.900;2022-09-24T16:11:27;22.23;;;18.23;;
59569;SDS011;45393;44.646;10.900;2022-09-24T16:13:53;26.13;;;18.97;;
59569;SDS011;45393;44.646;10.900;2022-09-24T16:16:19;25.10;;;19.80;;
59569;SDS011;45393;44.646;10.900;2022-09-24T16:18:45;22.17;;;18.80;;
59569;SDS011;45393;44.646;10.900;2022-09-24T16:21:12;25.23;;;20.97;;
59569;SDS011;45393;44.646;10.900;2022-09-24T16:23:38;25.40;;;19.47;;
59569;SDS011;45393;44.646;10.900;2022-09-24T16:26:04;24.50;;;19.90;;
59569;SDS011;45393;44.646;10.900;2022-09-24T16:28:30;23.63;;;21.03;;
59569;SDS011;45393;44.646;10.900;2022-09-24T16:30:56;22.80;;;19.80;;
59569;SDS011;45393;44.646;10.900;2022-09-24T16:33:23;23.13;;;19.40;;